sensor_id;sensor_type;location;lat;lon;timestamp;P1;durP1;ratioP1;P2;durP2;ratioP2
59876;SDS011;45749;51.140;17.184;2023-03-30T00:00:58;12.45;;;7.93;;
59876;SDS011;45749;51.140;17.184;2023-03-30T00:03:24;13.40;;;8.00;;
59876;SDS011;45749;51.140;17.184;2023-03-30T00:05:51;11.00;;;7.32;;
59876;SDS011;45749;51.140;17.184;2023-03-30T00:08:20;13.38;;;8.10;;
59876;SDS011;45749;51.140;17.184;2023-03-30T00:11:01;16.55;;;8.35;;
59876;SDS011;45749;51.140;17.184;2023-03-30T00:13:35;14.75;;;8.30;;
59876;SDS011;45749;51.140;17.184;2023-03-30T00:16:02;14.07;;;7.93;;
59876;SDS011;45749;51.140;17.184;2023-03-30T00:18:30;11.98;;;8.07;;
59876;SDS011;45749;51.140;17.184;2023-03-30T00:20:55;13.80;;;7.80;;
59876;SDS011;45749;51.140;17.184;2023-03-30T00:23:22;14.57;;;8.20;;
59876;SDS011;45749;51.140;17.184;2023-03-30T00:25:48;11.18;;;8.32;;
59876;SDS011;45749;51.140;17.184;2023-03-30T00:28:13;9.60;;;6.28;;
59876;SDS011;45749;51.140;17.184;2023-03-30T00:30:39;10.93;;;6.65;;
59876;SDS011;45749;51.140;17.184;2023-03-30T00:33:04;9.88;;;7.40;;
59876;SDS011;45749;51.140;17.184;2023-03-30T00:35:30;10.90;;;6.40;;
59876;SDS011;45749;51.140;17.184;2023-03-30T00:37:56;7.95;;;5.45;;
59876;SDS011;45749;51.140;17.184;2023-03-30T00:40:22;8.50;;;5.88;;
59876;SDS011;45749;51.140;17.184;2023-03-30T00:42:47;8.90;;;5.80;;
59876;SDS011;45749;51.140;17.184;2023-03-30T00:47:51;8.75;;;5.35;;
59876;SDS011;45749;51.140;17.184;2023-03-30T00:50:33;9.65;;;5.30;;
59876;SDS011;45749;51.140;17.184;2023-03-30T00:53:02;8.80;;;6.57;;
59876;SDS011;45749;51.140;17.184;2023-03-30T00:58:00;13.48;;;6.18;;
59876;SDS011;45749;51.140;17.184;2023-03-30T01:00:26;7.72;;;5.38;;
59876;SDS011;45749;51.140;17.184;2023-03-30T01:02:55;7.07;;;5.78;;
59876;SDS011;45749;51.140;17.184;2023-03-30T01:05:23;7.90;;;5.88;;
59876;SDS011;45749;51.140;17.184;2023-03-30T01:07:50;7.57;;;6.13;;
59876;SDS011;45749;51.140;17.184;2023-03-30T01:10:16;10.18;;;6.10;;
59876;SDS011;45749;51.140;17.184;2023-03-30T01:12:42;9.80;;;5.47;;
59876;SDS011;45749;51.140;17.184;2023-03-30T01:15:08;11.77;;;6.45;;
59876;SDS011;45749;51.140;17.184;2023-03-30T01:17:48;10.30;;;6.05;;
59876;SDS011;45749;51.140;17.184;2023-03-30T01:32:02;12.35;;;7.95;;
59876;SDS011;45749;51.140;17.184;2023-03-30T01:42:43;6.55;;;4.78;;
59876;SDS011;45749;51.140;17.184;2023-03-30T01:50:48;8.20;;;4.75;;
59876;SDS011;45749;51.140;17.184;2023-03-30T01:53:28;7.57;;;5.15;;
59876;SDS011;45749;51.140;17.184;2023-03-30T01:58:33;8.50;;;4.97;;
59876;SDS011;45749;51.140;17.184;2023-03-30T02:01:07;7.55;;;5.05;;
59876;SDS011;45749;51.140;17.184;2023-03-30T02:03:38;10.73;;;5.30;;
59876;SDS011;45749;51.140;17.184;2023-03-30T02:06:09;11.55;;;6.03;;
59876;SDS011;45749;51.140;17.184;2023-03-30T02:08:38;10.88;;;6.25;;
59876;SDS011;45749;51.140;17.184;2023-03-30T02:11:05;9.13;;;5.40;;
59876;SDS011;45749;51.140;17.184;2023-03-30T02:13:31;8.18;;;4.50;;
59876;SDS011;45749;51.140;17.184;2023-03-30T02:15:59;12.27;;;6.35;;
59876;SDS011;45749;51.140;17.184;2023-03-30T02:18:29;8.87;;;4.77;;
59876;SDS011;45749;51.140;17.184;2023-03-30T02:20:55;8.77;;;5.93;;
59876;SDS011;45749;51.140;17.184;2023-03-30T02:23:23;8.85;;;5.18;;
59876;SDS011;45749;51.140;17.184;2023-03-30T02:25:55;8.02;;;5.45;;
59876;SDS011;45749;51.140;17.184;2023-03-30T02:28:21;10.60;;;6.28;;
59876;SDS011;45749;51.140;17.184;2023-03-30T02:30:47;9.30;;;6.82;;
59876;SDS011;45749;51.140;17.184;2023-03-30T02:33:34;10.70;;;7.32;;
59876;SDS011;45749;51.140;17.184;2023-03-30T02:36:19;17.52;;;8.00;;
59876;SDS011;45749;51.140;17.184;2023-03-30T02:45:02;8.20;;;5.55;;
59876;SDS011;45749;51.140;17.184;2023-03-30T02:47:36;7.38;;;4.82;;
59876;SDS011;45749;51.140;17.184;2023-03-30T02:50:19;9.48;;;5.85;;
59876;SDS011;45749;51.140;17.184;2023-03-30T02:52:52;9.13;;;5.70;;
59876;SDS011;45749;51.140;17.184;2023-03-30T02:57:58;6.63;;;4.95;;
59876;SDS011;45749;51.140;17.184;2023-03-30T03:03:13;6.70;;;5.03;;
59876;SDS011;45749;51.140;17.184;2023-03-30T03:06:00;7.05;;;4.63;;
59876;SDS011;45749;51.140;17.184;2023-03-30T03:08:31;8.50;;;6.00;;
59876;SDS011;45749;51.140;17.184;2023-03-30T03:13:25;6.63;;;4.82;;
59876;SDS011;45749;51.140;17.184;2023-03-30T03:15:52;7.45;;;4.97;;
59876;SDS011;45749;51.140;17.184;2023-03-30T03:18:20;8.85;;;5.75;;
59876;SDS011;45749;51.140;17.184;2023-03-30T03:20:45;15.20;;;6.47;;
59876;SDS011;45749;51.140;17.184;2023-03-30T03:23:11;10.35;;;6.47;;
59876;SDS011;45749;51.140;17.184;2023-03-30T03:25:36;12.10;;;6.82;;
59876;SDS011;45749;51.140;17.184;2023-03-30T03:28:01;11.77;;;7.05;;
59876;SDS011;45749;51.140;17.184;2023-03-30T03:30:27;11.88;;;6.13;;
59876;SDS011;45749;51.140;17.184;2023-03-30T03:32:52;8.70;;;6.32;;
59876;SDS011;45749;51.140;17.184;2023-03-30T03:35:18;8.93;;;5.97;;
59876;SDS011;45749;51.140;17.184;2023-03-30T03:37:43;15.73;;;6.07;;
59876;SDS011;45749;51.140;17.184;2023-03-30T03:40:09;7.32;;;5.38;;
59876;SDS011;45749;51.140;17.184;2023-03-30T03:42:35;6.30;;;4.72;;
59876;SDS011;45749;51.140;17.184;2023-03-30T03:45:01;7.80;;;5.32;;
59876;SDS011;45749;51.140;17.184;2023-03-30T03:47:26;14.82;;;6.97;;
59876;SDS011;45749;51.140;17.184;2023-03-30T03:49:51;9.05;;;5.45;;
59876;SDS011;45749;51.140;17.184;2023-03-30T03:52:17;7.65;;;4.35;;
59876;SDS011;45749;51.140;17.184;2023-03-30T03:54:42;7.97;;;4.78;;
59876;SDS011;45749;51.140;17.184;2023-03-30T03:57:08;8.45;;;4.47;;
59876;SDS011;45749;51.140;17.184;2023-03-30T03:59:33;7.78;;;4.63;;
59876;SDS011;45749;51.140;17.184;2023-03-30T04:01:58;6.60;;;4.90;;
59876;SDS011;45749;51.140;17.184;2023-03-30T04:04:24;7.88;;;5.15;;
59876;SDS011;45749;51.140;17.184;2023-03-30T04:06:49;8.00;;;5.43;;
59876;SDS011;45749;51.140;17.184;2023-03-30T04:09:15;8.40;;;6.45;;
59876;SDS011;45749;51.140;17.184;2023-03-30T04:11:41;9.07;;;6.40;;
59876;SDS011;45749;51.140;17.184;2023-03-30T04:14:07;10.45;;;6.55;;
59876;SDS011;45749;51.140;17.184;2023-03-30T04:16:32;7.47;;;5.65;;
59876;SDS011;45749;51.140;17.184;2023-03-30T04:18:58;7.78;;;4.95;;
59876;SDS011;45749;51.140;17.184;2023-03-30T04:21:24;9.30;;;5.72;;
59876;SDS011;45749;51.140;17.184;2023-03-30T04:23:50;6.72;;;4.53;;
59876;SDS011;45749;51.140;17.184;2023-03-30T04:26:16;7.43;;;4.97;;
59876;SDS011;45749;51.140;17.184;2023-03-30T04:28:42;9.05;;;6.20;;
59876;SDS011;45749;51.140;17.184;2023-03-30T04:31:08;8.13;;;6.35;;
59876;SDS011;45749;51.140;17.184;2023-03-30T04:33:35;7.85;;;5.32;;
59876;SDS011;45749;51.140;17.184;2023-03-30T04:36:10;9.95;;;5.35;;
59876;SDS011;45749;51.140;17.184;2023-03-30T04:38:46;7.00;;;5.53;;
59876;SDS011;45749;51.140;17.184;2023-03-30T04:41:23;6.38;;;4.85;;
59876;SDS011;45749;51.140;17.184;2023-03-30T04:43:54;8.45;;;6.38;;
59876;SDS011;45749;51.140;17.184;2023-03-30T04:46:19;10.27;;;6.15;;
59876;SDS011;45749;51.140;17.184;2023-03-30T04:48:45;8.95;;;6.20;;
59876;SDS011;45749;51.140;17.184;2023-03-30T04:51:10;9.23;;;6.88;;
59876;SDS011;45749;51.140;17.184;2023-03-30T04:53:36;8.68;;;5.60;;
59876;SDS011;45749;51.140;17.184;2023-03-30T04:56:01;7.78;;;5.50;;
59876;SDS011;45749;51.140;17.184;2023-03-30T04:58:27;9.32;;;5.80;;
59876;SDS011;45749;51.140;17.184;2023-03-30T05:00:54;9.70;;;7.05;;
59876;SDS011;45749;51.140;17.184;2023-03-30T05:03:19;11.60;;;6.65;;
59876;SDS011;45749;51.140;17.184;2023-03-30T05:05:45;11.90;;;7.85;;
59876;SDS011;45749;51.140;17.184;2023-03-30T05:08:10;13.68;;;8.15;;
59876;SDS011;45749;51.140;17.184;2023-03-30T05:10:35;10.60;;;7.15;;
59876;SDS011;45749;51.140;17.184;2023-03-30T05:13:01;11.32;;;7.18;;
59876;SDS011;45749;51.140;17.184;2023-03-30T05:15:26;11.07;;;6.82;;
59876;SDS011;45749;51.140;17.184;2023-03-30T05:17:52;14.45;;;8.43;;
59876;SDS011;45749;51.140;17.184;2023-03-30T05:20:17;13.50;;;7.53;;
59876;SDS011;45749;51.140;17.184;2023-03-30T05:22:43;13.35;;;8.45;;
59876;SDS011;45749;51.140;17.184;2023-03-30T05:25:09;10.70;;;6.88;;
59876;SDS011;45749;51.140;17.184;2023-03-30T05:27:34;9.13;;;6.15;;
59876;SDS011;45749;51.140;17.184;2023-03-30T05:30:00;9.40;;;7.03;;
59876;SDS011;45749;51.140;17.184;2023-03-30T05:32:25;12.20;;;10.13;;
59876;SDS011;45749;51.140;17.184;2023-03-30T05:34:51;10.75;;;8.23;;
59876;SDS011;45749;51.140;17.184;2023-03-30T05:37:16;8.23;;;6.93;;
59876;SDS011;45749;51.140;17.184;2023-03-30T05:39:42;10.25;;;6.57;;
59876;SDS011;45749;51.140;17.184;2023-03-30T05:42:08;8.27;;;6.30;;
59876;SDS011;45749;51.140;17.184;2023-03-30T05:44:35;14.43;;;6.85;;
59876;SDS011;45749;51.140;17.184;2023-03-30T05:47:00;7.32;;;5.97;;
59876;SDS011;45749;51.140;17.184;2023-03-30T05:49:26;11.35;;;6.95;;
59876;SDS011;45749;51.140;17.184;2023-03-30T05:51:51;9.70;;;6.40;;
59876;SDS011;45749;51.140;17.184;2023-03-30T05:54:17;9.55;;;7.45;;
59876;SDS011;45749;51.140;17.184;2023-03-30T05:56:43;11.02;;;7.65;;
59876;SDS011;45749;51.140;17.184;2023-03-30T05:59:08;10.10;;;8.10;;
59876;SDS011;45749;51.140;17.184;2023-03-30T06:01:34;10.93;;;7.15;;
59876;SDS011;45749;51.140;17.184;2023-03-30T06:04:00;10.60;;;8.63;;
59876;SDS011;45749;51.140;17.184;2023-03-30T06:06:25;9.98;;;7.35;;
59876;SDS011;45749;51.140;17.184;2023-03-30T06:08:52;11.57;;;6.57;;
59876;SDS011;45749;51.140;17.184;2023-03-30T06:11:17;8.73;;;6.03;;
59876;SDS011;45749;51.140;17.184;2023-03-30T06:13:43;11.35;;;7.28;;
59876;SDS011;45749;51.140;17.184;2023-03-30T06:16:09;10.73;;;7.60;;
59876;SDS011;45749;51.140;17.184;2023-03-30T06:18:34;15.40;;;8.77;;
59876;SDS011;45749;51.140;17.184;2023-03-30T06:21:00;14.55;;;7.47;;
59876;SDS011;45749;51.140;17.184;2023-03-30T06:23:26;9.75;;;6.70;;
59876;SDS011;45749;51.140;17.184;2023-03-30T06:25:52;10.80;;;7.25;;
59876;SDS011;45749;51.140;17.184;2023-03-30T06:28:20;10.88;;;7.57;;
59876;SDS011;45749;51.140;17.184;2023-03-30T06:30:47;10.02;;;7.00;;
59876;SDS011;45749;51.140;17.184;2023-03-30T06:33:14;12.68;;;7.80;;
59876;SDS011;45749;51.140;17.184;2023-03-30T06:35:44;13.60;;;8.73;;
59876;SDS011;45749;51.140;17.184;2023-03-30T06:38:14;11.77;;;7.93;;
59876;SDS011;45749;51.140;17.184;2023-03-30T06:40:40;12.05;;;7.47;;
59876;SDS011;45749;51.140;17.184;2023-03-30T06:43:06;8.75;;;6.13;;
59876;SDS011;45749;51.140;17.184;2023-03-30T06:45:32;8.90;;;5.78;;
59876;SDS011;45749;51.140;17.184;2023-03-30T06:47:57;7.93;;;5.78;;
59876;SDS011;45749;51.140;17.184;2023-03-30T06:50:23;8.32;;;6.28;;
59876;SDS011;45749;51.140;17.184;2023-03-30T06:52:48;8.02;;;6.03;;
59876;SDS011;45749;51.140;17.184;2023-03-30T06:55:14;8.90;;;5.47;;
59876;SDS011;45749;51.140;17.184;2023-03-30T06:57:39;9.85;;;6.03;;
59876;SDS011;45749;51.140;17.184;2023-03-30T07:00:05;8.40;;;5.63;;
59876;SDS011;45749;51.140;17.184;2023-03-30T07:02:40;10.27;;;6.30;;
59876;SDS011;45749;51.140;17.184;2023-03-30T07:05:06;7.60;;;5.50;;
59876;SDS011;45749;51.140;17.184;2023-03-30T07:07:33;10.93;;;6.28;;
59876;SDS011;45749;51.140;17.184;2023-03-30T07:10:00;8.85;;;6.32;;
59876;SDS011;45749;51.140;17.184;2023-03-30T07:12:26;9.32;;;6.63;;
59876;SDS011;45749;51.140;17.184;2023-03-30T07:14:51;8.00;;;6.45;;
59876;SDS011;45749;51.140;17.184;2023-03-30T07:17:18;10.07;;;6.97;;
59876;SDS011;45749;51.140;17.184;2023-03-30T07:19:43;10.93;;;7.53;;
59876;SDS011;45749;51.140;17.184;2023-03-30T07:22:09;8.30;;;7.25;;
59876;SDS011;45749;51.140;17.184;2023-03-30T07:24:34;8.98;;;7.13;;
59876;SDS011;45749;51.140;17.184;2023-03-30T07:26:59;10.15;;;7.68;;
59876;SDS011;45749;51.140;17.184;2023-03-30T07:29:25;13.68;;;10.35;;
59876;SDS011;45749;51.140;17.184;2023-03-30T07:31:52;12.32;;;9.32;;
59876;SDS011;45749;51.140;17.184;2023-03-30T07:34:19;10.38;;;7.63;;
59876;SDS011;45749;51.140;17.184;2023-03-30T07:36:44;10.55;;;7.65;;
59876;SDS011;45749;51.140;17.184;2023-03-30T07:39:09;9.27;;;7.10;;
59876;SDS011;45749;51.140;17.184;2023-03-30T07:41:35;8.90;;;7.18;;
59876;SDS011;45749;51.140;17.184;2023-03-30T07:44:00;9.63;;;7.20;;
59876;SDS011;45749;51.140;17.184;2023-03-30T07:46:26;11.20;;;8.40;;
59876;SDS011;45749;51.140;17.184;2023-03-30T07:48:51;10.25;;;8.15;;
59876;SDS011;45749;51.140;17.184;2023-03-30T07:51:16;9.82;;;7.45;;
59876;SDS011;45749;51.140;17.184;2023-03-30T07:53:42;10.82;;;8.23;;
59876;SDS011;45749;51.140;17.184;2023-03-30T07:56:08;10.43;;;8.00;;
59876;SDS011;45749;51.140;17.184;2023-03-30T07:58:34;10.10;;;7.15;;
59876;SDS011;45749;51.140;17.184;2023-03-30T08:01:01;12.32;;;9.00;;
59876;SDS011;45749;51.140;17.184;2023-03-30T08:03:27;8.05;;;6.63;;
59876;SDS011;45749;51.140;17.184;2023-03-30T08:05:53;10.05;;;7.70;;
59876;SDS011;45749;51.140;17.184;2023-03-30T08:08:20;9.15;;;6.30;;
59876;SDS011;45749;51.140;17.184;2023-03-30T08:10:46;9.73;;;6.60;;
59876;SDS011;45749;51.140;17.184;2023-03-30T08:13:12;10.85;;;7.45;;
59876;SDS011;45749;51.140;17.184;2023-03-30T08:15:37;11.07;;;7.63;;
59876;SDS011;45749;51.140;17.184;2023-03-30T08:18:03;10.63;;;7.10;;
59876;SDS011;45749;51.140;17.184;2023-03-30T08:20:41;13.98;;;6.05;;
59876;SDS011;45749;51.140;17.184;2023-03-30T08:23:07;10.02;;;6.75;;
59876;SDS011;45749;51.140;17.184;2023-03-30T08:25:34;8.15;;;6.00;;
59876;SDS011;45749;51.140;17.184;2023-03-30T08:28:00;6.57;;;5.22;;
59876;SDS011;45749;51.140;17.184;2023-03-30T08:30:26;8.60;;;5.75;;
59876;SDS011;45749;51.140;17.184;2023-03-30T08:32:52;8.07;;;6.00;;
59876;SDS011;45749;51.140;17.184;2023-03-30T08:35:17;7.13;;;4.50;;
59876;SDS011;45749;51.140;17.184;2023-03-30T08:37:43;7.20;;;5.10;;
59876;SDS011;45749;51.140;17.184;2023-03-30T08:40:12;7.20;;;5.50;;
59876;SDS011;45749;51.140;17.184;2023-03-30T08:45:24;5.60;;;4.22;;
59876;SDS011;45749;51.140;17.184;2023-03-30T08:47:57;5.65;;;4.78;;
59876;SDS011;45749;51.140;17.184;2023-03-30T08:52:59;6.43;;;4.05;;
59876;SDS011;45749;51.140;17.184;2023-03-30T08:58:15;5.63;;;4.60;;
59876;SDS011;45749;51.140;17.184;2023-03-30T09:01:31;5.65;;;4.93;;
59876;SDS011;45749;51.140;17.184;2023-03-30T09:06:45;8.48;;;5.05;;
59876;SDS011;45749;51.140;17.184;2023-03-30T09:09:20;6.72;;;4.70;;
59876;SDS011;45749;51.140;17.184;2023-03-30T09:11:52;7.93;;;5.40;;
59876;SDS011;45749;51.140;17.184;2023-03-30T09:14:26;8.30;;;5.05;;
59876;SDS011;45749;51.140;17.184;2023-03-30T09:17:01;7.00;;;4.82;;
59876;SDS011;45749;51.140;17.184;2023-03-30T09:19:35;8.40;;;4.40;;
59876;SDS011;45749;51.140;17.184;2023-03-30T09:22:12;7.30;;;3.80;;
59876;SDS011;45749;51.140;17.184;2023-03-30T09:24:38;7.53;;;4.15;;
59876;SDS011;45749;51.140;17.184;2023-03-30T09:27:08;6.68;;;3.58;;
59876;SDS011;45749;51.140;17.184;2023-03-30T09:29:47;5.40;;;3.92;;
59876;SDS011;45749;51.140;17.184;2023-03-30T09:32:31;5.28;;;3.80;;
59876;SDS011;45749;51.140;17.184;2023-03-30T09:35:04;7.65;;;4.07;;
59876;SDS011;45749;51.140;17.184;2023-03-30T09:37:44;5.32;;;3.65;;
59876;SDS011;45749;51.140;17.184;2023-03-30T09:40:33;7.20;;;4.40;;
59876;SDS011;45749;51.140;17.184;2023-03-30T09:43:24;4.65;;;3.33;;
59876;SDS011;45749;51.140;17.184;2023-03-30T09:45:57;6.25;;;3.42;;
59876;SDS011;45749;51.140;17.184;2023-03-30T09:48:24;6.60;;;3.72;;
59876;SDS011;45749;51.140;17.184;2023-03-30T09:50:50;8.07;;;3.40;;
59876;SDS011;45749;51.140;17.184;2023-03-30T09:53:22;5.07;;;3.47;;
59876;SDS011;45749;51.140;17.184;2023-03-30T09:55:57;4.75;;;3.00;;
59876;SDS011;45749;51.140;17.184;2023-03-30T09:58:42;6.60;;;3.67;;
59876;SDS011;45749;51.140;17.184;2023-03-30T10:01:15;9.95;;;4.65;;
59876;SDS011;45749;51.140;17.184;2023-03-30T10:03:44;6.28;;;3.70;;
59876;SDS011;45749;51.140;17.184;2023-03-30T10:06:36;4.70;;;3.28;;
59876;SDS011;45749;51.140;17.184;2023-03-30T10:09:04;7.15;;;3.53;;
59876;SDS011;45749;51.140;17.184;2023-03-30T10:11:40;5.68;;;3.63;;
59876;SDS011;45749;51.140;17.184;2023-03-30T10:14:28;4.78;;;3.10;;
59876;SDS011;45749;51.140;17.184;2023-03-30T10:16:56;8.15;;;3.58;;
59876;SDS011;45749;51.140;17.184;2023-03-30T10:19:23;8.20;;;3.65;;
59876;SDS011;45749;51.140;17.184;2023-03-30T10:21:56;7.80;;;3.60;;
59876;SDS011;45749;51.140;17.184;2023-03-30T10:24:24;6.85;;;3.65;;
59876;SDS011;45749;51.140;17.184;2023-03-30T10:26:54;5.68;;;3.53;;
59876;SDS011;45749;51.140;17.184;2023-03-30T10:29:27;5.15;;;3.05;;
59876;SDS011;45749;51.140;17.184;2023-03-30T10:31:57;6.20;;;3.25;;
59876;SDS011;45749;51.140;17.184;2023-03-30T10:37:09;6.85;;;3.83;;
59876;SDS011;45749;51.140;17.184;2023-03-30T10:39:39;9.65;;;3.75;;
59876;SDS011;45749;51.140;17.184;2023-03-30T10:42:06;6.88;;;3.63;;
59876;SDS011;45749;51.140;17.184;2023-03-30T10:50:42;7.32;;;3.40;;
59876;SDS011;45749;51.140;17.184;2023-03-30T10:56:06;7.85;;;3.65;;
59876;SDS011;45749;51.140;17.184;2023-03-30T11:01:51;10.82;;;3.95;;
59876;SDS011;45749;51.140;17.184;2023-03-30T11:04:36;9.35;;;3.95;;
59876;SDS011;45749;51.140;17.184;2023-03-30T11:07:10;7.75;;;4.18;;
59876;SDS011;45749;51.140;17.184;2023-03-30T11:12:18;8.75;;;4.20;;
59876;SDS011;45749;51.140;17.184;2023-03-30T11:14:49;7.63;;;5.35;;
59876;SDS011;45749;51.140;17.184;2023-03-30T11:17:24;8.03;;;4.50;;
59876;SDS011;45749;51.140;17.184;2023-03-30T11:19:56;10.25;;;4.80;;
59876;SDS011;45749;51.140;17.184;2023-03-30T11:25:04;9.45;;;5.45;;
59876;SDS011;45749;51.140;17.184;2023-03-30T11:30:38;6.72;;;4.50;;
59876;SDS011;45749;51.140;17.184;2023-03-30T11:33:07;7.45;;;3.67;;
59876;SDS011;45749;51.140;17.184;2023-03-30T11:35:47;7.38;;;4.47;;
59876;SDS011;45749;51.140;17.184;2023-03-30T11:38:20;5.18;;;3.25;;
59876;SDS011;45749;51.140;17.184;2023-03-30T11:40:49;9.82;;;3.63;;
59876;SDS011;45749;51.140;17.184;2023-03-30T11:43:16;9.30;;;3.78;;
59876;SDS011;45749;51.140;17.184;2023-03-30T11:48:34;7.47;;;3.90;;
59876;SDS011;45749;51.140;17.184;2023-03-30T11:53:56;9.30;;;5.20;;
59876;SDS011;45749;51.140;17.184;2023-03-30T11:59:43;7.78;;;3.25;;
59876;SDS011;45749;51.140;17.184;2023-03-30T12:07:05;11.85;;;5.78;;
59876;SDS011;45749;51.140;17.184;2023-03-30T12:09:47;6.68;;;2.90;;
59876;SDS011;45749;51.140;17.184;2023-03-30T12:12:28;10.73;;;4.68;;
59876;SDS011;45749;51.140;17.184;2023-03-30T12:20:47;8.07;;;3.40;;
59876;SDS011;45749;51.140;17.184;2023-03-30T12:31:18;8.23;;;4.30;;
59876;SDS011;45749;51.140;17.184;2023-03-30T12:36:21;10.45;;;5.03;;
59876;SDS011;45749;51.140;17.184;2023-03-30T12:38:50;7.97;;;5.25;;
59876;SDS011;45749;51.140;17.184;2023-03-30T12:41:22;9.65;;;5.28;;
59876;SDS011;45749;51.140;17.184;2023-03-30T13:05:41;7.35;;;3.92;;
59876;SDS011;45749;51.140;17.184;2023-03-30T13:08:15;10.45;;;4.90;;
59876;SDS011;45749;51.140;17.184;2023-03-30T13:10:48;13.98;;;5.82;;
59876;SDS011;45749;51.140;17.184;2023-03-30T13:13:20;11.63;;;4.68;;
59876;SDS011;45749;51.140;17.184;2023-03-30T13:16:09;11.77;;;4.70;;
59876;SDS011;45749;51.140;17.184;2023-03-30T13:18:54;10.68;;;4.03;;
59876;SDS011;45749;51.140;17.184;2023-03-30T13:21:21;7.53;;;3.40;;
59876;SDS011;45749;51.140;17.184;2023-03-30T13:24:02;7.57;;;3.25;;
59876;SDS011;45749;51.140;17.184;2023-03-30T13:26:45;7.00;;;3.35;;
59876;SDS011;45749;51.140;17.184;2023-03-30T13:29:11;7.72;;;3.20;;
59876;SDS011;45749;51.140;17.184;2023-03-30T13:31:50;8.20;;;3.55;;
59876;SDS011;45749;51.140;17.184;2023-03-30T13:37:16;6.63;;;3.08;;
59876;SDS011;45749;51.140;17.184;2023-03-30T13:42:29;8.18;;;3.97;;
59876;SDS011;45749;51.140;17.184;2023-03-30T13:51:02;8.85;;;4.35;;
59876;SDS011;45749;51.140;17.184;2023-03-30T13:53:35;6.53;;;3.47;;
59876;SDS011;45749;51.140;17.184;2023-03-30T13:56:06;7.28;;;3.92;;
59876;SDS011;45749;51.140;17.184;2023-03-30T13:58:34;7.70;;;4.18;;
59876;SDS011;45749;51.140;17.184;2023-03-30T14:01:04;8.15;;;4.78;;
59876;SDS011;45749;51.140;17.184;2023-03-30T14:06:20;8.38;;;4.30;;
59876;SDS011;45749;51.140;17.184;2023-03-30T14:08:47;4.05;;;3.13;;
59876;SDS011;45749;51.140;17.184;2023-03-30T14:13:43;6.47;;;2.53;;
59876;SDS011;45749;51.140;17.184;2023-03-30T14:16:12;9.18;;;3.72;;
59876;SDS011;45749;51.140;17.184;2023-03-30T14:18:43;6.38;;;2.50;;
59876;SDS011;45749;51.140;17.184;2023-03-30T14:21:10;5.38;;;2.65;;
59876;SDS011;45749;51.140;17.184;2023-03-30T14:23:43;3.05;;;2.50;;
59876;SDS011;45749;51.140;17.184;2023-03-30T14:26:22;5.43;;;3.10;;
59876;SDS011;45749;51.140;17.184;2023-03-30T14:28:52;4.32;;;2.42;;
59876;SDS011;45749;51.140;17.184;2023-03-30T14:31:20;4.43;;;2.33;;
59876;SDS011;45749;51.140;17.184;2023-03-30T14:33:46;5.30;;;2.80;;
59876;SDS011;45749;51.140;17.184;2023-03-30T14:36:13;3.70;;;2.65;;
59876;SDS011;45749;51.140;17.184;2023-03-30T14:38:41;7.97;;;2.50;;
59876;SDS011;45749;51.140;17.184;2023-03-30T14:41:12;6.13;;;2.90;;
59876;SDS011;45749;51.140;17.184;2023-03-30T14:43:55;7.20;;;2.72;;
59876;SDS011;45749;51.140;17.184;2023-03-30T14:46:24;6.75;;;3.60;;
59876;SDS011;45749;51.140;17.184;2023-03-30T14:48:55;6.10;;;3.00;;
59876;SDS011;45749;51.140;17.184;2023-03-30T14:51:23;4.90;;;2.97;;
59876;SDS011;45749;51.140;17.184;2023-03-30T14:53:51;5.28;;;3.42;;
59876;SDS011;45749;51.140;17.184;2023-03-30T14:56:17;6.97;;;4.80;;
59876;SDS011;45749;51.140;17.184;2023-03-30T14:58:44;9.05;;;4.10;;
59876;SDS011;45749;51.140;17.184;2023-03-30T15:01:13;5.72;;;4.22;;
59876;SDS011;45749;51.140;17.184;2023-03-30T15:03:42;7.47;;;3.70;;
59876;SDS011;45749;51.140;17.184;2023-03-30T15:06:13;8.35;;;3.63;;
59876;SDS011;45749;51.140;17.184;2023-03-30T15:08:44;4.55;;;2.88;;
59876;SDS011;45749;51.140;17.184;2023-03-30T15:11:11;8.27;;;4.82;;
59876;SDS011;45749;51.140;17.184;2023-03-30T15:13:57;7.80;;;4.90;;
59876;SDS011;45749;51.140;17.184;2023-03-30T15:16:28;6.03;;;3.55;;
59876;SDS011;45749;51.140;17.184;2023-03-30T15:19:00;5.95;;;3.38;;
59876;SDS011;45749;51.140;17.184;2023-03-30T15:21:30;4.28;;;2.58;;
59876;SDS011;45749;51.140;17.184;2023-03-30T15:23:59;9.50;;;5.10;;
59876;SDS011;45749;51.140;17.184;2023-03-30T15:26:25;6.70;;;3.28;;
59876;SDS011;45749;51.140;17.184;2023-03-30T15:28:53;8.55;;;6.22;;
59876;SDS011;45749;51.140;17.184;2023-03-30T15:31:21;6.78;;;3.25;;
59876;SDS011;45749;51.140;17.184;2023-03-30T15:33:49;3.20;;;2.33;;
59876;SDS011;45749;51.140;17.184;2023-03-30T15:38:42;3.63;;;2.65;;
59876;SDS011;45749;51.140;17.184;2023-03-30T15:41:14;7.45;;;3.15;;
59876;SDS011;45749;51.140;17.184;2023-03-30T15:46:42;6.40;;;4.57;;
59876;SDS011;45749;51.140;17.184;2023-03-30T15:49:10;8.50;;;6.20;;
59876;SDS011;45749;51.140;17.184;2023-03-30T15:51:46;7.70;;;3.72;;
59876;SDS011;45749;51.140;17.184;2023-03-30T15:54:20;4.45;;;2.95;;
59876;SDS011;45749;51.140;17.184;2023-03-30T15:59:24;3.53;;;2.53;;
59876;SDS011;45749;51.140;17.184;2023-03-30T16:01:56;6.97;;;5.25;;
59876;SDS011;45749;51.140;17.184;2023-03-30T16:04:28;11.33;;;6.87;;
59876;SDS011;45749;51.140;17.184;2023-03-30T16:06:55;5.75;;;4.57;;
59876;SDS011;45749;51.140;17.184;2023-03-30T16:09:20;10.10;;;5.15;;
59876;SDS011;45749;51.140;17.184;2023-03-30T16:11:47;5.20;;;4.25;;
59876;SDS011;45749;51.140;17.184;2023-03-30T16:14:16;6.45;;;5.13;;
59876;SDS011;45749;51.140;17.184;2023-03-30T16:16:46;5.47;;;3.28;;
59876;SDS011;45749;51.140;17.184;2023-03-30T16:19:13;7.55;;;4.50;;
59876;SDS011;45749;51.140;17.184;2023-03-30T16:21:41;6.15;;;4.82;;
59876;SDS011;45749;51.140;17.184;2023-03-30T16:24:06;7.72;;;4.38;;
59876;SDS011;45749;51.140;17.184;2023-03-30T16:26:32;6.05;;;4.10;;
59876;SDS011;45749;51.140;17.184;2023-03-30T16:28:58;5.85;;;3.95;;
59876;SDS011;45749;51.140;17.184;2023-03-30T16:31:23;11.27;;;7.60;;
59876;SDS011;45749;51.140;17.184;2023-03-30T16:33:49;5.00;;;3.63;;
59876;SDS011;45749;51.140;17.184;2023-03-30T16:36:15;8.13;;;4.38;;
59876;SDS011;45749;51.140;17.184;2023-03-30T16:38:42;7.70;;;4.57;;
59876;SDS011;45749;51.140;17.184;2023-03-30T16:41:13;7.40;;;4.72;;
59876;SDS011;45749;51.140;17.184;2023-03-30T16:43:42;8.02;;;4.45;;
59876;SDS011;45749;51.140;17.184;2023-03-30T16:46:09;8.85;;;4.90;;
59876;SDS011;45749;51.140;17.184;2023-03-30T16:48:37;9.48;;;4.45;;
59876;SDS011;45749;51.140;17.184;2023-03-30T16:51:02;13.32;;;7.15;;
59876;SDS011;45749;51.140;17.184;2023-03-30T16:53:28;11.38;;;6.55;;
59876;SDS011;45749;51.140;17.184;2023-03-30T16:55:53;8.70;;;4.72;;
59876;SDS011;45749;51.140;17.184;2023-03-30T16:58:18;9.55;;;5.15;;
59876;SDS011;45749;51.140;17.184;2023-03-30T17:00:45;13.75;;;4.70;;
59876;SDS011;45749;51.140;17.184;2023-03-30T17:03:13;6.65;;;4.80;;
59876;SDS011;45749;51.140;17.184;2023-03-30T17:05:39;8.10;;;4.82;;
59876;SDS011;45749;51.140;17.184;2023-03-30T17:08:10;14.20;;;7.03;;
59876;SDS011;45749;51.140;17.184;2023-03-30T17:10:41;9.43;;;5.95;;
59876;SDS011;45749;51.140;17.184;2023-03-30T17:13:07;11.25;;;7.68;;
59876;SDS011;45749;51.140;17.184;2023-03-30T17:15:33;17.77;;;8.82;;
59876;SDS011;45749;51.140;17.184;2023-03-30T17:18:03;11.85;;;7.78;;
59876;SDS011;45749;51.140;17.184;2023-03-30T17:20:37;16.83;;;9.18;;